Time;durP1;ratioP1;P1;durP2;ratioP2;P2;SDS_P1;SDS_P2;PMS_P1;PMS_P2;Temp;Humidity;BMP_temperature;BMP_pressure;BME280_temperature;BME280_humidity;BME280_pressure;Samples;Min_cycle;Max_cycle;Signal;HPM_P1;HPM_P2
2023/03/03 00:01:31;;;;;;;45.97;17.70;;;;;;;10.44;91.33;102307.94;5101672;28;20096;-52
2023/03/03 00:03:58;;;;;;;42.17;17.35;;;;;;;10.76;89.76;102303.78;5098498;28;20036;-48
2023/03/03 00:06:24;;;;;;;41.80;17.38;;;;;;;10.69;89.63;102302.72;5097003;28;20033;-50
2023/03/03 00:08:50;;;;;;;42.30;17.50;;;;;;;10.67;90.91;102315.44;5101347;28;20068;-51
2023/03/03 00:11:16;;;;;;;42.40;17.10;;;;;;;10.73;90.38;102309.47;5100139;28;20040;-50
2023/03/03 00:13:45;;;;;;;48.43;18.17;;;;;;;10.95;89.70;102302.69;5100024;28;20040;-49
2023/03/03 00:16:22;;;;;;;38.67;17.13;;;;;;;10.92;88.30;102304.81;5099711;28;20273;-48
2023/03/03 00:18:48;;;;;;;39.35;16.55;;;;;;;10.89;89.59;102303.34;5099892;28;20108;-48
2023/03/03 00:21:25;;;;;;;35.75;15.25;;;;;;;10.81;90.86;102298.78;5101195;28;20055;-51
2023/03/03 00:23:52;;;;;;;42.55;16.90;;;;;;;10.79;89.82;102303.47;5103281;28;20035;-53
2023/03/03 00:26:21;;;;;;;34.83;16.27;;;;;;;11.09;88.44;102306.56;5101946;28;20037;-53
2023/03/03 00:28:50;;;;;;;34.25;15.73;;;;;;;11.14;88.29;102308.75;5101782;28;20036;-47
2023/03/03 00:31:19;;;;;;;38.80;16.63;;;;;;;11.07;88.37;102305.03;5103452;28;20043;-54
2023/03/03 00:33:54;;;;;;;38.67;15.98;;;;;;;10.97;88.68;102300.66;5101311;28;20039;-53
2023/03/03 00:36:37;;;;;;;43.33;15.82;;;;;;;10.85;88.65;102302.81;5084238;28;20055;-50
2023/03/03 00:39:22;;;;;;;42.25;16.30;;;;;;;10.87;88.79;102313.38;5081270;28;20035;-50
2023/03/03 00:41:47;;;;;;;41.83;15.98;;;;;;;11.07;88.04;102307.72;5099660;28;20040;-51
2023/03/03 00:44:42;;;;;;;35.35;14.27;;;;;;;11.02;88.87;102309.06;5101334;28;20028;-49
2023/03/03 00:47:35;;;;;;;40.50;16.05;;;;;;;10.91;88.46;102298.66;5096863;28;20024;-53
2023/03/03 00:50:06;;;;;;;33.83;14.73;;;;;;;11.07;87.48;102302.38;5098163;28;20028;-52
2023/03/03 00:52:36;;;;;;;38.33;16.27;;;;;;;11.09;86.48;102311.09;5084249;28;20032;-49
2023/03/03 00:55:03;;;;;;;41.47;16.67;;;;;;;11.12;86.44;102308.09;5097859;28;20029;-48
2023/03/03 00:57:29;;;;;;;39.67;15.55;;;;;;;11.05;86.38;102313.25;5086539;28;20028;-53
2023/03/03 00:59:55;;;;;;;36.60;15.38;;;;;;;10.81;87.42;102311.31;5097346;28;20415;-46
2023/03/03 01:02:21;;;;;;;40.20;16.05;;;;;;;10.95;86.61;102309.84;5101498;28;20031;-51
2023/03/03 01:04:52;;;;;;;37.58;16.08;;;;;;;11.13;85.86;102304.41;5098733;28;20050;-47
2023/03/03 01:07:18;;;;;;;35.40;15.40;;;;;;;11.07;85.98;102313.06;5085899;28;20036;-48
2023/03/03 01:09:44;;;;;;;36.25;15.07;;;;;;;10.92;86.84;102324.41;5100476;28;20088;-50
2023/03/03 01:12:11;;;;;;;37.97;15.07;;;;;;;10.97;86.70;102316.72;5103777;28;20042;-52
2023/03/03 01:14:37;;;;;;;39.58;15.40;;;;;;;11.13;85.19;102323.16;5096090;28;20332;-51
2023/03/03 01:17:03;;;;;;;;;;;;;;;10.97;85.54;102322.09;5081612;28;20037;-48
2023/03/03 01:19:29;;;;;;;30.80;12.88;;;;;;;10.99;85.56;102320.09;5100299;28;19916;-50
2023/03/03 01:21:54;;;;;;;37.77;14.03;;;;;;;10.96;85.71;102323.09;5118193;28;20035;-49
2023/03/03 01:24:20;;;;;;;32.03;12.97;;;;;;;11.07;85.38;102329.13;5094331;28;20316;-49
2023/03/03 01:26:46;;;;;;;31.73;13.80;;;;;;;11.07;84.87;102323.78;5103365;28;20059;-49
2023/03/03 01:29:11;;;;;;;34.30;12.80;;;;;;;11.07;85.00;102326.47;5086309;28;20032;-52
2023/03/03 01:31:37;;;;;;;31.40;13.93;;;;;;;11.36;83.44;102328.72;5105200;28;20287;-50
2023/03/03 01:34:02;;;;;;;35.37;13.63;;;;;;;11.12;84.05;102332.19;5115347;28;20033;-48
2023/03/03 01:36:28;;;;;;;34.07;12.77;;;;;;;10.99;84.74;102317.41;5085321;28;20072;-50
2023/03/03 01:38:54;;;;;;;32.70;14.88;;;;;;;10.83;85.49;102326.22;5082608;28;20047;-49
2023/03/03 01:41:20;;;;;;;32.08;13.18;;;;;;;10.57;86.20;102332.44;5103360;28;20036;-49
2023/03/03 01:43:48;;;;;;;27.27;11.93;;;;;;;10.95;84.52;102329.44;5100278;28;20032;-51
2023/03/03 01:46:30;;;;;;;27.13;11.82;;;;;;;10.62;85.79;102334.66;5080280;28;20052;-48
2023/03/03 01:49:02;;;;;;;29.75;12.95;;;;;;;10.80;85.36;102339.91;5099883;28;20025;-47
2023/03/03 01:51:32;;;;;;;31.35;12.43;;;;;;;10.81;85.55;102335.38;5098011;28;20028;-54
2023/03/03 01:54:02;;;;;;;28.77;11.95;;;;;;;10.64;86.00;102335.34;5103773;28;20036;-49
2023/03/03 01:56:29;;;;;;;30.02;12.70;;;;;;;10.78;85.41;102341.06;5079603;28;20034;-50
2023/03/03 01:59:02;;;;;;;28.17;12.43;;;;;;;10.78;85.87;102335.72;5084542;28;20036;-55
2023/03/03 02:01:28;;;;;;;26.50;11.45;;;;;;;10.98;85.06;102336.31;5081440;28;20054;-48
2023/03/03 02:03:57;;;;;;;28.27;11.82;;;;;;;10.86;84.18;102333.09;5099879;28;20059;-46
2023/03/03 02:06:28;;;;;;;32.17;13.10;;;;;;;10.92;84.22;102337.81;5100328;28;20035;-47
2023/03/03 02:09:17;;;;;;;31.73;13.00;;;;;;;10.66;85.23;102338.69;5101091;28;20051;-46
2023/03/03 02:11:45;;;;;;;33.63;12.98;;;;;;;11.24;82.67;102338.91;5103414;28;20032;-49
2023/03/03 02:14:12;;;;;;;34.65;13.80;;;;;;;11.27;82.26;102348.47;5083729;28;20039;-53
2023/03/03 02:16:42;;;;;;;31.73;12.82;;;;;;;11.24;82.44;102343.44;5100075;28;20056;-49
2023/03/03 02:19:17;;;;;;;26.20;11.07;;;;;;;11.25;82.23;102337.91;5086829;28;20033;-49
2023/03/03 02:21:43;;;;;;;28.75;12.27;;;;;;;11.24;81.96;102340.75;5097066;28;20051;-45
2023/03/03 02:24:33;;;;;;;36.53;13.67;;;;;;;11.60;80.57;102325.25;5082998;28;20029;-51
2023/03/03 02:26:59;;;;;;;30.70;13.93;;;;;;;11.45;80.56;102333.13;5085076;28;20283;-48
2023/03/03 02:29:27;;;;;;;31.65;13.50;;;;;;;11.62;80.29;102333.13;5080659;28;20080;-47
2023/03/03 02:31:52;;;;;;;32.30;13.00;;;;;;;11.52;80.56;102335.94;5111468;28;20123;-50
2023/03/03 02:34:20;;;;;;;28.92;12.48;;;;;;;11.31;81.26;102334.59;5082507;28;20032;-51
2023/03/03 02:36:45;;;;;;;29.47;13.43;;;;;;;11.21;81.21;102341.91;5099461;28;20079;-50
2023/03/03 02:39:23;;;;;;;21.13;10.07;;;;;;;11.04;81.39;102335.66;5093328;28;20037;-49
2023/03/03 02:42:11;;;;;;;27.52;11.65;;;;;;;10.88;81.98;102339.13;5098067;28;20033;-51
2023/03/03 02:44:45;;;;;;;25.15;11.07;;;;;;;11.10;81.74;102335.00;5078408;28;20033;-53
2023/03/03 02:47:10;;;;;;;29.65;11.77;;;;;;;11.51;80.03;102336.13;5075263;28;20040;-52
2023/03/03 02:49:36;;;;;;;29.17;11.53;;;;;;;11.27;80.72;102332.41;5075230;28;20038;-51
2023/03/03 02:52:04;;;;;;;33.88;12.52;;;;;;;11.07;81.85;102332.66;5099521;28;20097;-49
2023/03/03 02:54:30;;;;;;;36.05;13.60;;;;;;;11.13;82.01;102333.88;5073923;28;20092;-49
2023/03/03 02:56:59;;;;;;;34.40;13.45;;;;;;;11.16;82.11;102329.00;5081561;28;20058;-48
2023/03/03 02:59:25;;;;;;;30.92;12.57;;;;;;;11.17;82.42;102327.19;5078783;28;20031;-49
2023/03/03 03:01:51;;;;;;;32.37;13.10;;;;;;;11.01;82.84;102328.78;5082768;28;20040;-48
2023/03/03 03:04:24;;;;;;;30.02;12.45;;;;;;;11.07;82.96;102331.81;5082426;28;20055;-48
2023/03/03 03:06:51;;;;;;;35.05;13.23;;;;;;;11.07;83.46;102339.84;5104525;28;20036;-50
2023/03/03 03:09:18;;;;;;;30.45;13.45;;;;;;;11.16;82.58;102336.22;5085272;28;20039;-47
2023/03/03 03:11:46;;;;;;;32.67;13.43;;;;;;;11.03;82.71;102334.81;5078067;28;20029;-50
2023/03/03 03:14:14;;;;;;;29.88;11.57;;;;;;;10.83;83.76;102338.75;5081646;28;20028;-50
2023/03/03 03:16:41;;;;;;;29.65;12.00;;;;;;;10.89;83.96;102341.63;5085159;28;20037;-49
2023/03/03 03:19:07;;;;;;;26.15;9.43;;;;;;;10.92;83.31;102344.97;5097517;28;20058;-48
2023/03/03 03:21:35;;;;;;;26.42;11.88;;;;;;;10.93;82.86;102346.66;5120589;28;20036;-49
2023/03/03 03:24:01;;;;;;;32.92;12.48;;;;;;;11.43;80.65;102345.00;5084228;28;20049;-48
2023/03/03 03:26:26;;;;;;;28.03;12.57;;;;;;;11.16;80.71;102350.44;5109173;28;20029;-50
2023/03/03 03:28:52;;;;;;;31.42;11.68;;;;;;;11.09;80.60;102349.41;5082188;28;20264;-47
2023/03/03 03:31:19;;;;;;;25.15;11.10;;;;;;;11.19;80.78;102341.25;5081499;28;20058;-51
2023/03/03 03:33:46;;;;;;;29.35;12.80;;;;;;;11.19;79.96;102338.56;5081160;28;20024;-50
2023/03/03 03:36:13;;;;;;;29.27;11.95;;;;;;;11.38;79.43;102350.00;5086357;28;20070;-50
2023/03/03 03:38:40;;;;;;;;;;;;;;;11.03;82.07;102350.88;5083908;28;20055;-51
2023/03/03 03:41:07;;;;;;;23.27;9.88;;;;;;;11.09;80.61;102346.72;5081505;28;19956;-51
2023/03/03 03:43:34;;;;;;;27.05;11.50;;;;;;;11.27;79.99;102351.97;5112212;28;20044;-49
2023/03/03 03:46:01;;;;;;;31.55;12.93;;;;;;;10.67;81.02;102356.41;5078670;28;20028;-49
2023/03/03 03:48:28;;;;;;;33.78;12.77;;;;;;;10.72;82.02;102348.75;5080236;28;20063;-47
2023/03/03 03:50:54;;;;;;;29.70;12.20;;;;;;;10.71;83.59;102347.06;5081196;28;20028;-47
2023/03/03 03:53:22;;;;;;;31.90;12.73;;;;;;;10.70;83.38;102347.22;5114580;28;20036;-46
2023/03/03 03:55:48;;;;;;;29.35;11.48;;;;;;;10.74;82.46;102352.09;5098970;28;20038;-49
2023/03/03 03:58:16;;;;;;;;;;;;;;;10.75;82.39;102348.41;5084747;28;20099;-51
2023/03/03 04:00:46;;;;;;;26.02;11.13;;;;;;;10.46;84.04;102348.75;5079954;28;19912;-50
2023/03/03 04:03:13;;;;;;;28.07;11.50;;;;;;;10.33;84.23;102346.47;5076337;28;20033;-51
2023/03/03 04:05:42;;;;;;;27.63;11.60;;;;;;;10.59;83.01;102349.19;5080787;28;20071;-50
2023/03/03 04:08:09;;;;;;;28.83;11.43;;;;;;;10.73;82.36;102360.31;5083507;28;20024;-52
2023/03/03 04:10:35;;;;;;;32.20;11.73;;;;;;;10.95;81.03;102355.34;5083914;28;20032;-51
2023/03/03 04:13:03;;;;;;;31.30;12.05;;;;;;;10.83;81.21;102350.31;5088498;28;20723;-51
2023/03/03 04:15:31;;;;;;;33.22;12.45;;;;;;;10.99;79.99;102351.38;5086394;28;20054;-50
2023/03/03 04:17:58;;;;;;;29.25;11.73;;;;;;;11.02;79.59;102354.56;5087442;28;20458;-49
2023/03/03 04:20:24;;;;;;;;;;;;;;;11.23;78.53;102355.97;5086127;28;20100;-52
2023/03/03 04:22:51;;;;;;;27.05;11.07;;;;;;;11.01;78.78;102362.78;5088601;28;19955;-48
2023/03/03 04:25:18;;;;;;;30.73;12.55;;;;;;;10.81;79.51;102356.81;5067861;28;20050;-51
2023/03/03 04:27:45;;;;;;;23.92;11.10;;;;;;;10.66;80.15;102349.38;5082857;28;20107;-53
2023/03/03 04:30:14;;;;;;;29.33;11.95;;;;;;;10.78;79.83;102351.78;5086323;28;20032;-49
2023/03/03 04:32:41;;;;;;;29.50;12.95;;;;;;;10.84;79.20;102354.66;5083648;28;20053;-49
2023/03/03 04:35:10;;;;;;;30.52;12.10;;;;;;;10.59;80.49;102349.19;5084125;28;20036;-48
2023/03/03 04:37:39;;;;;;;30.77;12.25;;;;;;;10.89;80.21;102354.19;5085593;28;20020;-49
2023/03/03 04:40:06;;;;;;;29.88;11.10;;;;;;;10.95;79.13;102360.72;5086633;28;20028;-52
2023/03/03 04:42:34;;;;;;;31.50;12.30;;;;;;;10.70;80.37;102355.25;5085323;28;20032;-50
2023/03/03 04:45:00;;;;;;;29.40;11.68;;;;;;;10.50;81.47;102362.66;5083326;28;20029;-49
2023/03/03 04:47:26;;;;;;;27.83;12.20;;;;;;;10.09;82.45;102353.31;5082559;28;20097;-47
2023/03/03 04:49:52;;;;;;;29.70;10.77;;;;;;;10.43;82.38;102363.28;5079964;28;20033;-48
2023/03/03 04:52:18;;;;;;;27.55;12.07;;;;;;;10.64;81.29;102371.94;5083060;28;20028;-50
2023/03/03 04:54:44;;;;;;;27.42;11.60;;;;;;;10.71;81.20;102367.63;5082513;28;20051;-51
2023/03/03 04:57:09;;;;;;;27.45;11.68;;;;;;;10.61;81.46;102370.44;5077351;28;20056;-53
2023/03/03 04:59:35;;;;;;;29.98;10.80;;;;;;;10.27;82.75;102371.16;5086629;28;20036;-51
2023/03/03 05:02:03;;;;;;;29.73;12.10;;;;;;;10.37;83.28;102371.06;5084019;28;20087;-51
2023/03/03 05:04:29;;;;;;;32.83;12.55;;;;;;;10.43;83.24;102371.31;5098761;28;20175;-52
2023/03/03 05:06:56;;;;;;;32.00;12.17;;;;;;;10.39;83.26;102369.06;5101641;28;20039;-48
2023/03/03 05:09:21;;;;;;;32.53;12.05;;;;;;;10.38;82.64;102380.75;5099452;28;20082;-52
2023/03/03 05:11:47;;;;;;;27.38;10.55;;;;;;;10.50;82.47;102376.88;5105578;28;20024;-52
2023/03/03 05:14:13;;;;;;;31.57;12.50;;;;;;;10.54;82.50;102377.38;5104762;28;20058;-51
2023/03/03 05:16:38;;;;;;;31.30;11.90;;;;;;;10.53;82.83;102373.03;5097973;28;20068;-46
2023/03/03 05:19:03;;;;;;;27.53;10.43;;;;;;;10.57;82.71;102369.03;5103088;28;20043;-52
2023/03/03 05:21:29;;;;;;;27.87;11.23;;;;;;;10.58;82.83;102373.41;5104689;28;20065;-50
2023/03/03 05:23:55;;;;;;;25.90;10.95;;;;;;;10.71;81.81;102372.97;5097779;28;20055;-51
2023/03/03 05:26:20;;;;;;;28.67;11.03;;;;;;;10.79;81.59;102380.22;5096713;28;20051;-48
2023/03/03 05:28:46;;;;;;;22.13;9.23;;;;;;;10.96;80.99;102375.81;5102012;28;20299;-53
2023/03/03 05:31:13;;;;;;;37.25;13.65;;;;;;;10.87;81.15;102377.59;5096849;28;20052;-51
2023/03/03 05:33:38;;;;;;;31.90;12.73;;;;;;;11.10;80.12;102382.38;5099783;28;20040;-50
2023/03/03 05:36:04;;;;;;;34.37;12.90;;;;;;;10.91;81.07;102384.31;5095733;28;20133;-51
2023/03/03 05:38:29;;;;;;;36.65;13.13;;;;;;;11.00;80.88;102382.50;5100134;28;20036;-49
2023/03/03 05:40:55;;;;;;;38.57;15.50;;;;;;;11.09;80.61;102386.06;5098686;28;20032;-48
2023/03/03 05:43:20;;;;;;;35.47;12.93;;;;;;;11.12;80.35;102383.06;5100811;28;20024;-51
2023/03/03 05:45:46;;;;;;;35.60;13.30;;;;;;;10.90;80.23;102379.94;5099722;28;20075;-51
2023/03/03 05:48:11;;;;;;;38.27;14.13;;;;;;;10.89;81.02;102380.94;5095727;28;20035;-49
2023/03/03 05:50:37;;;;;;;32.72;13.18;;;;;;;10.78;81.50;102379.38;5098197;28;20039;-52
2023/03/03 05:53:03;;;;;;;35.65;13.50;;;;;;;10.90;81.02;102383.44;5094852;28;20037;-51
2023/03/03 05:55:28;;;;;;;35.67;14.67;;;;;;;11.03;80.82;102376.84;5097860;28;20024;-50
2023/03/03 05:57:54;;;;;;;39.80;16.03;;;;;;;10.99;80.57;102387.00;5097628;28;20063;-49
2023/03/03 06:00:20;;;;;;;35.53;14.18;;;;;;;10.88;81.02;102381.94;5097845;28;20058;-48
2023/03/03 06:02:46;;;;;;;32.85;12.68;;;;;;;11.18;80.67;102382.41;5092662;28;20113;-54
2023/03/03 06:05:11;;;;;;;35.67;12.53;;;;;;;11.16;80.13;102387.09;5098702;28;20036;-47
2023/03/03 06:07:37;;;;;;;37.85;12.98;;;;;;;11.18;80.28;102391.25;5101444;28;20028;-51
2023/03/03 06:10:03;;;;;;;36.63;14.17;;;;;;;11.28;79.30;102390.31;5099733;28;20040;-49
2023/03/03 06:12:32;;;;;;;35.20;13.05;;;;;;;11.23;79.69;102389.97;5076402;28;20031;-51
2023/03/03 06:14:58;;;;;;;33.25;12.77;;;;;;;10.98;80.64;102397.91;5097053;28;20088;-50
2023/03/03 06:17:23;;;;;;;31.90;12.20;;;;;;;10.87;81.34;102407.88;5101184;28;20037;-51
2023/03/03 06:19:49;;;;;;;27.03;12.70;;;;;;;11.04;81.02;102402.59;5095209;28;20051;-47
2023/03/03 06:22:14;;;;;;;30.87;11.50;;;;;;;10.99;80.44;102408.44;5098057;28;20036;-48
2023/03/03 06:24:40;;;;;;;31.73;9.80;;;;;;;11.19;79.47;102414.41;5099153;28;20320;-52
2023/03/03 06:27:05;;;;;;;33.30;9.10;;;;;;;10.83;80.61;102409.19;5100759;28;20032;-51
2023/03/03 06:29:31;;;;;;;20.58;8.80;;;;;;;11.00;80.27;102415.47;5095145;28;20055;-51
2023/03/03 06:31:56;;;;;;;25.50;9.40;;;;;;;11.16;79.21;102414.69;5099353;28;20051;-50
2023/03/03 06:34:22;;;;;;;22.90;9.07;;;;;;;11.13;79.17;102415.00;5101697;28;20095;-51
2023/03/03 06:36:48;;;;;;;20.00;8.20;;;;;;;10.83;79.62;102419.03;5096336;28;20055;-49
2023/03/03 06:39:14;;;;;;;26.25;8.57;;;;;;;11.01;79.75;102422.50;5099444;28;20040;-48
2023/03/03 06:41:39;;;;;;;23.63;9.83;;;;;;;11.31;78.80;102422.13;5098755;28;20112;-54
2023/03/03 06:44:04;;;;;;;23.73;8.77;;;;;;;10.80;80.00;102430.91;5100764;28;20265;-55
2023/03/03 06:46:30;;;;;;;21.63;8.35;;;;;;;11.02;80.38;102428.69;5099820;28;20032;-47
2023/03/03 06:48:55;;;;;;;20.70;8.17;;;;;;;11.23;79.61;102428.28;5098543;28;20047;-49
2023/03/03 06:51:27;;;;;;;27.97;10.13;;;;;;;11.09;80.01;102436.94;5100964;28;20037;-48
2023/03/03 06:53:55;;;;;;;23.30;8.75;;;;;;;11.23;79.43;102432.81;5095938;28;20036;-50
2023/03/03 06:56:23;;;;;;;23.95;9.07;;;;;;;11.13;79.66;102438.28;5100276;28;20088;-51
2023/03/03 06:58:49;;;;;;;22.55;7.65;;;;;;;11.26;78.96;102445.88;5100679;28;20039;-53
2023/03/03 07:01:16;;;;;;;20.13;7.47;;;;;;;10.90;80.21;102446.88;5098076;28;20028;-52
2023/03/03 07:03:42;;;;;;;22.52;7.30;;;;;;;10.99;80.43;102437.88;5099553;28;20040;-49
2023/03/03 07:06:22;;;;;;;24.33;7.22;;;;;;;11.10;80.81;102452.00;5098203;28;20043;-47
2023/03/03 07:08:48;;;;;;;20.95;7.45;;;;;;;11.17;80.47;102447.69;5101635;28;20057;-49
2023/03/03 07:11:18;;;;;;;19.23;8.05;;;;;;;10.93;81.73;102448.38;5096549;28;20032;-48
2023/03/03 07:13:49;;;;;;;18.42;7.93;;;;;;;10.63;83.04;102454.06;5098666;28;20159;-52
2023/03/03 07:16:17;;;;;;;18.40;7.00;;;;;;;10.88;83.05;102454.22;5101282;28;20042;-49
2023/03/03 07:19:00;;;;;;;26.33;8.05;;;;;;;11.32;80.82;102456.78;5101217;28;20036;-50
2023/03/03 07:21:35;;;;;;;22.98;8.05;;;;;;;11.31;81.23;102464.97;5094596;28;20096;-49
2023/03/03 07:24:14;;;;;;;24.45;8.00;;;;;;;11.26;81.27;102461.94;5098082;28;20051;-49
2023/03/03 07:26:40;;;;;;;21.65;8.85;;;;;;;11.26;81.59;102473.47;5095283;28;20036;-52
2023/03/03 07:29:21;;;;;;;17.07;6.83;;;;;;;11.26;81.84;102472.66;5099413;28;20075;-48
2023/03/03 07:31:48;;;;;;;17.38;7.18;;;;;;;10.83;84.41;102473.41;5095033;28;20048;-53
2023/03/03 07:34:24;;;;;;;20.85;8.40;;;;;;;10.96;84.09;102462.28;5095508;28;20035;-52
2023/03/03 07:36:58;;;;;;;19.75;7.85;;;;;;;11.12;83.93;102471.41;5095810;28;20128;-50
2023/03/03 07:39:37;;;;;;;20.23;7.95;;;;;;;11.09;83.98;102469.06;5096914;28;20047;-48
2023/03/03 07:42:33;;;;;;;26.27;8.38;;;;;;;11.47;82.47;102470.41;5096833;28;20036;-50
2023/03/03 07:45:29;;;;;;;20.50;6.32;;;;;;;11.35;82.83;102473.53;5115873;28;20100;-50
2023/03/03 07:48:25;;;;;;;19.08;7.85;;;;;;;11.39;83.05;102480.25;5098008;28;20032;-48
2023/03/03 07:50:51;;;;;;;29.67;8.88;;;;;;;11.41;83.39;102475.56;5102000;28;20053;-47
2023/03/03 07:53:28;;;;;;;14.15;5.68;;;;;;;11.53;82.86;102479.63;5106179;28;20028;-49
2023/03/03 07:55:54;;;;;;;23.75;8.50;;;;;;;11.51;83.11;102486.16;5098169;28;20028;-50
2023/03/03 07:58:22;;;;;;;19.80;7.43;;;;;;;11.64;82.72;102483.03;5097980;28;20028;-49
2023/03/03 08:01:31;;;;;;;20.83;7.97;;;;;;;11.53;83.44;102487.66;5095967;28;20048;-53
2023/03/03 08:03:57;;;;;;;20.75;9.25;;;;;;;11.66;83.32;102494.44;5099563;28;20028;-53
2023/03/03 08:06:26;;;;;;;20.98;7.22;;;;;;;11.60;82.67;102491.41;5100937;28;20096;-48
2023/03/03 08:08:51;;;;;;;17.25;7.72;;;;;;;11.64;83.33;102501.78;5100734;28;20096;-53
2023/03/03 08:11:16;;;;;;;19.10;7.07;;;;;;;11.55;83.69;102487.50;5101239;28;20025;-52
2023/03/03 08:13:44;;;;;;;24.40;7.77;;;;;;;11.62;83.10;102500.09;5102444;28;20035;-49
2023/03/03 08:16:10;;;;;;;18.60;7.35;;;;;;;11.86;82.67;102500.34;5103658;28;20273;-55
2023/03/03 08:18:40;;;;;;;22.57;8.47;;;;;;;11.79;82.62;102505.53;5103932;28;20033;-51
2023/03/03 08:21:18;;;;;;;14.70;6.53;;;;;;;11.90;82.33;102501.72;5102840;28;20048;-51
2023/03/03 08:23:44;;;;;;;21.63;8.07;;;;;;;12.00;81.88;102520.34;5116650;28;20032;-51
2023/03/03 08:26:12;;;;;;;14.93;7.30;;;;;;;11.41;84.42;102510.41;5103680;28;20028;-52
2023/03/03 08:28:38;;;;;;;19.83;7.60;;;;;;;11.70;84.15;102514.53;5100548;28;20039;-49
2023/03/03 08:31:04;;;;;;;16.52;7.30;;;;;;;11.95;83.07;102515.47;5098552;28;20028;-52
2023/03/03 08:33:29;;;;;;;19.75;7.65;;;;;;;11.85;83.38;102523.66;5099882;28;20040;-54
2023/03/03 08:35:54;;;;;;;23.17;6.90;;;;;;;12.10;82.25;102523.75;5099339;28;20048;-52
2023/03/03 08:38:21;;;;;;;18.07;6.73;;;;;;;12.04;82.42;102527.09;5099303;28;20095;-53
2023/03/03 08:40:48;;;;;;;20.02;6.68;;;;;;;12.40;81.20;102523.28;5103955;28;20028;-51
2023/03/03 08:43:16;;;;;;;16.60;7.35;;;;;;;12.38;80.69;102523.44;5105239;28;20023;-51
2023/03/03 08:45:44;;;;;;;18.40;7.63;;;;;;;12.25;80.64;102529.28;5096680;28;20067;-51
2023/03/03 08:48:09;;;;;;;20.70;7.25;;;;;;;12.45;79.79;102531.69;5104283;28;20039;-49
2023/03/03 08:50:35;;;;;;;17.47;7.23;;;;;;;12.54;79.73;102529.84;5101752;28;20050;-49
2023/03/03 08:53:00;;;;;;;21.50;7.90;;;;;;;12.71;78.68;102531.53;5097674;28;20046;-49
2023/03/03 08:55:26;;;;;;;18.03;7.17;;;;;;;12.84;77.92;102530.16;5099494;28;20025;-50
2023/03/03 08:57:51;;;;;;;15.50;5.87;;;;;;;12.82;78.30;102526.81;5096248;28;20032;-47
2023/03/03 09:00:18;;;;;;;19.27;6.27;;;;;;;12.84;77.46;102533.69;5096184;28;20052;-48
2023/03/03 09:02:45;;;;;;;14.73;6.55;;;;;;;13.08;76.13;102526.63;5093319;28;20286;-47
2023/03/03 09:05:11;;;;;;;18.40;5.93;;;;;;;12.96;76.58;102528.81;5101491;28;20040;-48
2023/03/03 09:07:37;;;;;;;16.95;5.93;;;;;;;12.83;76.91;102536.53;5099196;28;20082;-49
2023/03/03 09:10:03;;;;;;;21.80;7.70;;;;;;;12.82;77.04;102534.88;5095557;28;20036;-47
2023/03/03 09:12:34;;;;;;;19.35;6.88;;;;;;;12.24;78.46;102529.47;5093880;28;20029;-52
2023/03/03 09:15:11;;;;;;;17.67;7.38;;;;;;;12.36;78.97;102536.19;5096518;28;20057;-48
2023/03/03 09:17:37;;;;;;;17.67;7.30;;;;;;;12.33;79.06;102540.03;5096061;28;20092;-48
2023/03/03 09:20:26;;;;;;;18.47;7.17;;;;;;;12.81;77.73;102541.25;5093961;28;20043;-49
2023/03/03 09:22:53;;;;;;;18.73;6.78;;;;;;;12.50;77.82;102536.56;5101137;28;20033;-50
2023/03/03 09:25:32;;;;;;;17.02;7.30;;;;;;;13.03;76.32;102535.19;5077802;28;20036;-48
2023/03/03 09:27:58;;;;;;;13.57;6.78;;;;;;;12.96;75.68;102530.66;5094016;28;20040;-46
2023/03/03 09:30:35;;;;;;;10.80;4.93;;;;;;;13.09;74.02;102543.56;5098444;28;20051;-48
2023/03/03 09:33:01;;;;;;;17.20;6.37;;;;;;;13.34;74.14;102536.31;5093238;28;20024;-48
2023/03/03 09:35:37;;;;;;;14.25;5.75;;;;;;;13.92;71.81;102538.78;5098708;28;20028;-51
2023/03/03 09:38:33;;;;;;;15.48;6.22;;;;;;;14.09;71.25;102539.53;5092764;28;20071;-50
2023/03/03 09:41:20;;;;;;;13.63;5.88;;;;;;;14.76;69.02;102537.22;5076240;28;20040;-50
2023/03/03 09:43:54;;;;;;;17.45;6.35;;;;;;;16.30;65.00;102548.41;5096904;28;20042;-48
2023/03/03 09:46:35;;;;;;;16.15;6.50;;;;;;;17.13;61.26;102544.38;5102601;28;20040;-56
2023/03/03 09:49:04;;;;;;;14.65;6.18;;;;;;;16.47;60.83;102562.50;5093955;28;20107;-49
2023/03/03 09:51:51;;;;;;;18.85;6.30;;;;;;;16.31;61.16;102558.19;5099403;28;20041;-47
2023/03/03 09:55:03;;;;;;;17.42;7.07;;;;;;;15.84;61.22;102558.47;5094551;28;20048;-51
2023/03/03 09:57:42;;;;;;;17.05;6.22;;;;;;;15.08;62.49;102558.66;5031511;28;20040;-52
2023/03/03 10:00:17;;;;;;;16.98;6.10;;;;;;;15.11;62.43;102555.59;5097689;28;20036;-51
2023/03/03 10:03:01;;;;;;;10.60;4.80;;;;;;;17.34;59.56;102556.97;5095207;28;20032;-52
2023/03/03 10:05:44;;;;;;;12.63;4.93;;;;;;;18.25;56.82;102563.19;5100591;28;20101;-51
2023/03/03 10:08:28;;;;;;;13.43;6.10;;;;;;;19.95;52.57;102570.13;5107201;28;20043;-49
2023/03/03 10:11:02;;;;;;;13.13;5.30;;;;;;;21.44;49.02;102574.19;5109528;28;20342;-47
2023/03/03 10:13:31;;;;;;;16.33;6.07;;;;;;;22.40;46.06;102571.91;5101442;28;20273;-50
2023/03/03 10:16:27;;;;;;;14.87;7.23;;;;;;;22.68;45.06;102574.00;5105193;28;20394;-52
2023/03/03 10:19:16;;;;;;;13.47;5.90;;;;;;;21.82;45.45;102572.28;5088566;28;20363;-50
2023/03/03 10:21:52;;;;;;;17.13;6.63;;;;;;;21.07;45.97;102571.41;5089467;28;20281;-48
2023/03/03 10:24:28;;;;;;;11.73;5.68;;;;;;;20.32;46.54;102570.34;5099487;28;20093;-53
2023/03/03 10:27:02;;;;;;;11.95;5.82;;;;;;;19.69;47.25;102563.72;5101653;28;20044;-53
2023/03/03 10:30:09;;;;;;;11.63;5.53;;;;;;;18.93;48.56;102555.97;5099208;28;20042;-49
2023/03/03 10:32:53;;;;;;;18.23;6.83;;;;;;;18.61;49.04;102561.16;5102695;28;20281;-50
2023/03/03 10:35:31;;;;;;;15.57;6.73;;;;;;;18.49;49.36;102569.06;5099095;28;20312;-51
2023/03/03 10:38:26;;;;;;;17.40;7.37;;;;;;;19.24;49.14;102570.75;5100106;28;20416;-49
2023/03/03 10:41:29;;;;;;;12.53;6.13;;;;;;;20.46;47.12;102566.47;5099592;28;20276;-50
2023/03/03 10:44:46;;;;;;;14.27;6.23;;;;;;;22.23;44.30;102577.19;5087111;28;20257;-50
2023/03/03 10:47:35;;;;;;;14.17;6.43;;;;;;;23.55;41.81;102571.59;5095405;28;20349;-52
2023/03/03 10:50:38;;;;;;;11.53;5.30;;;;;;;24.99;39.89;102578.00;5100354;28;21196;-51
2023/03/03 10:53:22;;;;;;;11.13;5.33;;;;;;;23.74;40.68;102576.88;5104714;28;20032;-51
2023/03/03 10:56:00;;;;;;;11.13;6.13;;;;;;;25.51;37.93;102580.63;5104649;28;20033;-52
2023/03/03 10:58:45;;;;;;;12.87;5.73;;;;;;;26.36;36.25;102584.81;5099213;28;20044;-49
2023/03/03 11:01:10;;;;;;;12.10;6.03;;;;;;;25.95;35.92;102582.47;5104032;28;20378;-49
2023/03/03 11:03:52;;;;;;;11.70;4.90;;;;;;;25.76;35.77;102580.94;5102903;28;20040;-50
2023/03/03 11:06:25;;;;;;;23.43;5.00;;;;;;;24.72;37.73;102575.91;5104409;28;20032;-52
2023/03/03 11:09:07;;;;;;;12.53;4.80;;;;;;;25.43;36.28;102573.66;5102483;28;20041;-49
2023/03/03 11:11:40;;;;;;;8.07;4.33;;;;;;;26.47;36.15;102584.63;5105284;28;20047;-51
2023/03/03 11:14:36;;;;;;;12.77;4.60;;;;;;;27.94;33.33;102584.38;5106357;28;20457;-50
2023/03/03 11:17:19;;;;;;;8.65;4.43;;;;;;;28.22;32.33;102576.72;5103837;28;20038;-52
2023/03/03 11:19:56;;;;;;;10.80;4.07;;;;;;;28.14;31.97;102578.91;5099329;28;20091;-53
2023/03/03 11:22:54;;;;;;;7.17;3.40;;;;;;;27.61;33.48;102568.88;5098383;28;20107;-53
2023/03/03 11:25:24;;;;;;;6.10;2.97;;;;;;;27.51;33.82;102574.34;5096091;28;20501;-52
2023/03/03 11:28:02;;;;;;;5.57;2.80;;;;;;;27.65;33.22;102574.66;5094841;28;20047;-51
2023/03/03 11:30:49;;;;;;;8.23;2.87;;;;;;;27.52;31.83;102575.16;5097199;28;20044;-53
2023/03/03 11:33:24;;;;;;;6.30;3.47;;;;;;;26.57;33.51;102572.13;5099733;28;20024;-55